Forside
METAR-TAF:

METAR-TAF

Lufthavne :

Wakkanai, Japan

Breddekreds: 45-24N, længdekreds: 141-48E, højde: 8 m

Aktuelle vejr

Denne rapport blev lavet for 12 timer og 16 minutter siden, kl. 09:00 UTC
Vind 13 kt fra sydsydvest
Temperatur 23°C
Fugtighed 83%
Tryk 998 hPa
Sigt 10 km eller mere
Nogle få skyer i en højde af 800 ft
Brudte skyer

METAR: RJCW 220900Z 20013KT 9999 FEW008 BKN/// 23/20 Q0998

Tid: 06:16 (21:16 UTC)


TAF: fraværende

Vejrobservationer og prognoser fra mere end 4000 lufthavne (METAR og TAF).

De gule og røde prikker repræsenterer de meteorologiske stationer.

Flyt musen over at se navnet på stationen.

Så klik over at se vejr observationer og prognoser.

At skifte det kort: Klik på de grønne knapper med et sort kors for at zoome ind; på den grønne knap med en bindestreg for at zoome ud; eller på de grønne pile for tilstødende kort.


METAR-TAF: